Time;durP1;ratioP1;P1;durP2;ratioP2;P2;SDS_P1;SDS_P2;PMS_P1;PMS_P2;Temp;Humidity;BMP_temperature;BMP_pressure;BME280_temperature;BME280_humidity;BME280_pressure;Samples;Min_cycle;Max_cycle;Signal;HPM_P1;HPM_P2
2022/07/08 00:00:12;;;;;;;5.80;2.30;;;;;;;17.72;46.97;102280.06;692623;28;1247;-79
2022/07/08 00:00:33;;;;;;;6.32;2.70;;;;;;;17.71;46.99;102280.03;687271;28;1283;-78
2022/07/08 00:00:53;;;;;;;5.50;2.60;;;;;;;17.68;46.94;102280.84;687791;28;1300;-78
2022/07/08 00:01:14;;;;;;;5.85;2.97;;;;;;;17.72;46.99;102288.00;690332;28;1202;-78
2022/07/08 00:01:35;;;;;;;5.00;2.80;;;;;;;17.87;46.79;102282.16;690509;28;1281;-78
2022/07/08 00:01:56;;;;;;;6.87;2.90;;;;;;;17.97;46.62;102277.97;687777;28;807;-77
2022/07/08 00:02:17;;;;;;;7.00;2.67;;;;;;;18.04;46.27;102279.88;682416;29;1016;-77
2022/07/08 00:02:37;;;;;;;6.55;2.55;;;;;;;18.07;46.17;102273.78;690830;28;1250;-77
2022/07/08 00:02:59;;;;;;;4.75;2.53;;;;;;;18.19;46.12;102291.66;687869;28;1037;-77
2022/07/08 00:03:28;;;;;;;6.75;2.75;;;;;;;18.16;45.99;102274.00;689886;28;1259;-78
2022/07/08 00:04:01;;;;;;;6.78;2.60;;;;;;;18.14;45.98;102272.13;684984;28;1150;-79
2022/07/08 00:04:23;;;;;;;3.80;2.33;;;;;;;18.12;46.12;102273.88;690429;28;995;-78
2022/07/08 00:04:43;;;;;;;4.55;2.50;;;;;;;18.20;45.89;102285.50;688401;28;1308;-76
2022/07/08 00:05:04;;;;;;;4.35;2.50;;;;;;;18.13;46.20;102271.22;687758;28;1060;-77
2022/07/08 00:05:25;;;;;;;5.18;2.50;;;;;;;18.18;46.15;102271.34;688406;28;1285;-77
2022/07/08 00:05:46;;;;;;;5.00;2.40;;;;;;;18.18;46.10;102279.28;682331;28;1185;-77
2022/07/08 00:06:07;;;;;;;4.90;2.30;;;;;;;18.18;45.95;102276.66;684857;28;1273;-78
2022/07/08 00:06:27;;;;;;;4.20;2.20;;;;;;;18.17;46.10;102269.59;690260;28;1920;-78
2022/07/08 00:06:48;;;;;;;4.85;2.35;;;;;;;18.21;45.83;102274.94;690550;28;783;-78
2022/07/08 00:07:10;;;;;;;6.63;2.53;;;;;;;18.25;46.01;102282.97;687714;28;1223;-78
2022/07/08 00:07:31;;;;;;;7.00;2.63;;;;;;;18.21;45.89;102279.38;685025;28;945;-77
2022/07/08 00:07:52;;;;;;;6.10;2.50;;;;;;;18.17;45.81;102281.06;685243;28;741;-78
2022/07/08 00:08:13;;;;;;;6.15;2.50;;;;;;;17.97;46.26;102283.25;690299;28;1188;-77
2022/07/08 00:08:44;;;;;;;7.05;2.40;;;;;;;17.91;46.57;102293.66;690508;28;994;-77
2022/07/08 00:09:05;;;;;;;8.60;2.60;;;;;;;17.79;46.93;102279.34;690482;28;1082;-78
2022/07/08 00:09:26;;;;;;;7.83;2.80;;;;;;;17.78;47.02;102277.53;690342;28;1075;-77
2022/07/08 00:09:47;;;;;;;6.03;2.70;;;;;;;17.78;47.01;102288.09;689990;28;1417;-76
2022/07/08 00:10:08;;;;;;;6.68;2.78;;;;;;;17.73;46.96;102287.13;687563;28;1212;-79
2022/07/08 00:10:29;;;;;;;4.80;2.40;;;;;;;17.70;47.16;102281.78;687709;28;1204;-79
2022/07/08 00:10:50;;;;;;;7.60;2.50;;;;;;;17.68;47.17;102275.56;685126;28;1260;-80
2022/07/08 00:11:11;;;;;;;5.93;2.40;;;;;;;17.65;47.08;102286.94;687713;28;1307;-77
2022/07/08 00:11:33;;;;;;;5.78;2.40;;;;;;;17.67;47.18;102289.63;685090;28;1077;-78
2022/07/08 00:11:54;;;;;;;5.50;2.55;;;;;;;17.68;47.25;102280.84;685285;28;1141;-79
2022/07/08 00:12:15;;;;;;;5.88;2.65;;;;;;;17.60;47.21;102277.16;685049;28;1006;-79
2022/07/08 00:12:36;;;;;;;7.22;2.90;;;;;;;17.63;47.15;102285.13;685005;28;1045;-77
2022/07/08 00:12:57;;;;;;;6.10;2.60;;;;;;;17.65;47.20;102292.22;687289;28;1479;-77
2022/07/08 00:13:17;;;;;;;6.63;2.50;;;;;;;17.60;47.21;102277.16;687581;28;1205;-76
2022/07/08 00:13:38;;;;;;;6.27;2.60;;;;;;;17.65;47.52;102288.72;685024;28;1249;-77
2022/07/08 00:13:59;;;;;;;5.18;2.55;;;;;;;17.66;47.23;102290.50;687116;28;1749;-78
2022/07/08 00:14:20;;;;;;;5.30;2.50;;;;;;;17.66;47.19;102293.13;687523;28;1341;-78
2022/07/08 00:14:41;;;;;;;5.35;2.50;;;;;;;17.64;47.31;102294.84;687782;28;1130;-77
2022/07/08 00:15:03;;;;;;;6.73;2.70;;;;;;;17.59;47.41;102288.56;690491;28;1102;-77
2022/07/08 00:15:23;;;;;;;7.38;2.80;;;;;;;17.59;47.33;102289.47;693490;28;1251;-78
2022/07/08 00:15:44;;;;;;;8.13;2.70;;;;;;;17.63;47.54;102293.03;690194;28;1184;-79
2022/07/08 00:16:05;;;;;;;7.38;2.50;;;;;;;17.63;47.50;102293.03;690920;28;1188;-79
2022/07/08 00:16:26;;;;;;;6.93;2.60;;;;;;;17.57;47.43;102279.72;690770;28;946;-78
2022/07/08 00:16:47;;;;;;;5.32;2.40;;;;;;;17.64;47.38;102290.44;690851;28;1397;-77
2022/07/08 00:17:08;;;;;;;4.35;2.40;;;;;;;17.56;47.55;102280.59;688106;28;1298;-78
2022/07/08 00:17:29;;;;;;;4.00;2.37;;;;;;;17.60;47.27;102283.34;688166;28;910;-78
2022/07/08 00:17:49;;;;;;;5.78;2.50;;;;;;;17.59;47.21;102283.28;688225;28;1369;-77
2022/07/08 00:18:10;;;;;;;6.70;2.53;;;;;;;17.60;47.44;102291.25;691055;28;988;-77
2022/07/08 00:18:31;;;;;;;6.85;2.70;;;;;;;17.59;47.52;102285.94;688152;28;1067;-77
2022/07/08 00:18:51;;;;;;;6.93;2.80;;;;;;;17.59;47.32;102281.56;687908;28;1172;-78
2022/07/08 00:19:14;;;;;;;5.40;2.55;;;;;;;17.63;47.64;102282.47;685592;28;1079;-77
2022/07/08 00:19:35;;;;;;;5.70;2.40;;;;;;;17.59;47.48;102288.56;690391;28;1440;-77
2022/07/08 00:19:56;;;;;;;6.07;2.50;;;;;;;17.58;47.65;102278.88;693138;28;1265;-78
2022/07/08 00:20:17;;;;;;;7.73;2.70;;;;;;;17.66;47.50;102287.84;688226;28;1205;-78
2022/07/08 00:20:37;;;;;;;7.60;2.78;;;;;;;17.58;47.64;102285.03;691178;28;1452;-78
2022/07/08 00:20:58;;;;;;;7.45;2.60;;;;;;;17.57;47.37;102279.72;693782;28;1455;-78
2022/07/08 00:21:18;;;;;;;5.77;2.50;;;;;;;17.56;47.38;102280.59;690856;28;1236;-78
2022/07/08 00:21:39;;;;;;;4.90;2.50;;;;;;;17.57;47.53;102282.38;688200;28;1138;-78
2022/07/08 00:22:00;;;;;;;3.53;2.60;;;;;;;17.60;47.42;102292.97;685298;28;1408;-77
2022/07/08 00:22:21;;;;;;;4.75;2.80;;;;;;;17.61;47.39;102286.84;685471;28;1363;-78
2022/07/08 00:22:42;;;;;;;6.93;3.30;;;;;;;17.57;47.50;102283.25;688283;28;1476;-77
2022/07/08 00:23:03;;;;;;;8.13;3.33;;;;;;;17.61;47.58;102286.84;690596;28;1473;-78
2022/07/08 00:23:24;;;;;;;7.97;3.17;;;;;;;17.54;47.58;102276.13;688230;28;1000;-77
2022/07/08 00:23:44;;;;;;;6.53;2.60;;;;;;;17.53;47.50;102271.72;688257;28;783;-77
2022/07/08 00:24:20;;;;;;;6.70;2.40;;;;;;;17.53;47.64;102270.84;688251;28;1178;-76
2022/07/08 00:24:41;;;;;;;7.75;2.30;;;;;;;17.56;47.70;102281.47;690954;28;1370;-77
2022/07/08 00:25:03;;;;;;;6.72;2.40;;;;;;;17.59;47.49;102285.94;685733;28;1325;-78
2022/07/08 00:25:24;;;;;;;6.22;2.50;;;;;;;17.61;47.62;102289.47;685575;28;1158;-78
2022/07/08 00:25:44;;;;;;;4.68;2.40;;;;;;;17.53;47.64;102281.41;688279;28;1263;-77
2022/07/08 00:26:06;;;;;;;5.57;2.30;;;;;;;17.51;47.61;102283.09;690125;28;1329;-77
2022/07/08 00:26:27;;;;;;;7.72;2.50;;;;;;;17.50;47.65;102284.84;688086;28;1975;-78
2022/07/08 00:26:48;;;;;;;7.72;2.50;;;;;;;17.51;47.57;102284.00;688388;28;1328;-77
2022/07/08 00:27:08;;;;;;;6.60;2.67;;;;;;;17.72;47.19;102281.81;693575;28;1218;-77
2022/07/08 00:27:29;;;;;;;5.28;2.40;;;;;;;17.68;47.51;102291.41;690802;28;1164;-78
2022/07/08 00:27:50;;;;;;;4.47;2.40;;;;;;;17.64;47.38;102287.81;688286;28;1037;-78
2022/07/08 00:28:15;;;;;;;7.63;2.42;;;;;;;17.64;47.28;102297.50;690887;28;972;-78
2022/07/08 00:28:36;;;;;;;9.07;2.67;;;;;;;17.62;47.45;102288.63;696395;28;1158;-77
2022/07/08 00:28:57;;;;;;;9.27;2.90;;;;;;;17.61;47.44;102292.13;693647;28;1307;-77
2022/07/08 00:29:27;;;;;;;7.88;2.80;;;;;;;17.57;47.23;102277.97;693606;28;1230;-77
2022/07/08 00:29:47;;;;;;;7.80;2.58;;;;;;;17.52;47.53;102275.22;687895;28;874;-77
2022/07/08 00:30:09;;;;;;;6.90;2.40;;;;;;;17.51;47.31;102280.44;688236;28;1089;-78
2022/07/08 00:30:30;;;;;;;5.85;2.38;;;;;;;17.53;47.37;102284.91;685473;28;1461;-78
2022/07/08 00:30:51;;;;;;;5.07;2.20;;;;;;;17.54;47.28;102286.69;685589;28;824;-77
2022/07/08 00:31:11;;;;;;;5.47;2.30;;;;;;;17.50;47.13;102279.56;689871;28;839;-78
2022/07/08 00:31:32;;;;;;;8.32;2.67;;;;;;;17.54;47.41;102278.78;691469;28;1072;-78
2022/07/08 00:31:53;;;;;;;8.07;2.80;;;;;;;17.50;47.44;102281.31;693081;28;930;-78
2022/07/08 00:32:15;;;;;;;7.47;2.70;;;;;;;17.56;47.41;102286.75;694257;28;1165;-78
2022/07/08 00:32:36;;;;;;;4.68;2.70;;;;;;;17.51;47.27;102284.00;693401;28;1305;-78
2022/07/08 00:32:57;;;;;;;5.38;2.60;;;;;;;17.54;47.34;102283.19;688266;28;921;-77
2022/07/08 00:33:17;;;;;;;6.37;2.50;;;;;;;17.53;47.06;102282.28;687292;28;1592;-78
2022/07/08 00:33:38;;;;;;;5.72;2.30;;;;;;;17.46;47.14;102277.72;690392;28;1309;-77
2022/07/08 00:33:59;;;;;;;4.88;2.42;;;;;;;17.50;47.08;102284.84;687576;28;1004;-77
2022/07/08 00:34:21;;;;;;;8.00;2.70;;;;;;;17.43;47.35;102274.09;690734;28;1288;-78
2022/07/08 00:34:41;;;;;;;9.85;2.80;;;;;;;17.46;47.21;102268.91;688262;28;1458;-77
2022/07/08 00:35:03;;;;;;;8.23;2.67;;;;;;;17.50;47.30;102284.84;688205;28;1179;-78
2022/07/08 00:35:23;;;;;;;5.70;2.60;;;;;;;17.57;47.17;102292.94;687970;28;1739;-76
2022/07/08 00:35:44;;;;;;;5.50;2.42;;;;;;;17.50;47.44;102278.66;691230;28;1066;-77
2022/07/08 00:36:06;;;;;;;6.35;2.50;;;;;;;17.52;47.22;102282.25;692550;28;1302;-77
2022/07/08 00:36:27;;;;;;;5.67;2.47;;;;;;;17.56;47.13;102283.22;693418;28;909;-77
2022/07/08 00:36:47;;;;;;;5.10;2.40;;;;;;;17.56;47.37;102285.88;693605;28;1223;-77
2022/07/08 00:37:09;;;;;;;4.40;2.20;;;;;;;17.53;47.37;102282.28;693745;28;953;-77
2022/07/08 00:37:30;;;;;;;4.55;2.20;;;;;;;17.48;47.32;102278.66;690684;28;969;-78
2022/07/08 00:37:50;;;;;;;4.27;2.30;;;;;;;17.52;47.18;102282.25;692232;28;1337;-77
2022/07/08 00:38:11;;;;;;;4.20;2.53;;;;;;;17.48;47.15;102270.75;691013;28;976;-78
2022/07/08 00:38:33;;;;;;;4.57;2.72;;;;;;;17.45;47.25;102273.28;688158;28;1028;-78
2022/07/08 00:38:54;;;;;;;6.32;2.83;;;;;;;17.54;47.36;102294.63;690929;28;1013;-78
2022/07/08 00:39:14;;;;;;;6.30;2.70;;;;;;;17.51;47.28;102286.63;687706;28;1265;-77
2022/07/08 00:39:37;;;;;;;6.07;2.77;;;;;;;17.49;47.14;102279.53;687673;28;1187;-77
2022/07/08 00:39:58;;;;;;;6.00;2.95;;;;;;;17.51;47.21;102278.72;688005;28;1131;-77
2022/07/08 00:40:18;;;;;;;7.88;2.97;;;;;;;17.53;47.17;102281.41;690875;28;1325;-78
2022/07/08 00:40:39;;;;;;;9.73;3.00;;;;;;;17.51;47.07;102281.34;685688;28;1234;-78
2022/07/08 00:40:59;;;;;;;7.75;2.63;;;;;;;17.54;47.15;102297.25;685671;28;1068;-78
2022/07/08 00:41:20;;;;;;;7.22;2.70;;;;;;;17.48;46.95;102283.03;685372;28;1400;-78
2022/07/08 00:41:41;;;;;;;6.07;2.78;;;;;;;17.49;47.19;102276.91;685587;28;831;-77
2022/07/08 00:42:02;;;;;;;6.53;2.87;;;;;;;17.49;47.20;102285.72;687736;28;1062;-77
2022/07/08 00:42:23;;;;;;;7.47;2.80;;;;;;;17.50;47.12;102282.22;688176;28;1014;-78
2022/07/08 00:42:48;;;;;;;7.57;2.78;;;;;;;17.50;47.37;102284.84;688227;28;803;-77
2022/07/08 00:43:25;;;;;;;7.60;2.80;;;;;;;17.52;47.35;102292.81;688149;28;1091;-78
2022/07/08 00:43:47;;;;;;;4.65;2.38;;;;;;;17.53;47.22;102295.47;693732;28;771;-78
2022/07/08 00:44:08;;;;;;;5.20;2.53;;;;;;;17.47;47.26;102286.53;690899;28;992;-78
2022/07/08 00:44:29;;;;;;;5.13;2.72;;;;;;;17.49;47.09;102290.09;690906;28;1055;-77
2022/07/08 00:44:50;;;;;;;4.13;2.58;;;;;;;17.51;47.06;102291.91;688513;28;1338;-79
2022/07/08 00:45:11;;;;;;;4.25;2.60;;;;;;;17.47;47.16;102290.06;687464;28;1307;-79
2022/07/08 00:45:31;;;;;;;4.38;2.30;;;;;;;17.42;46.99;102278.50;688073;28;937;-78
2022/07/08 00:45:52;;;;;;;4.25;2.28;;;;;;;17.44;47.03;102279.44;687757;28;1125;-78
2022/07/08 00:46:15;;;;;;;3.90;2.27;;;;;;;17.49;47.13;102288.34;684974;28;1982;-77
2022/07/08 00:46:35;;;;;;;4.47;2.35;;;;;;;17.45;46.89;102278.56;685397;28;1098;-77
2022/07/08 00:46:57;;;;;;;4.70;2.40;;;;;;;17.39;47.15;102270.50;685648;28;907;-77
2022/07/08 00:47:17;;;;;;;7.15;3.10;;;;;;;17.44;46.98;102275.91;690819;28;1286;-79
2022/07/08 00:47:38;;;;;;;7.13;3.00;;;;;;;17.47;46.93;102282.16;693568;28;1141;-78
2022/07/08 00:47:59;;;;;;;7.20;3.08;;;;;;;17.51;46.96;102284.00;688255;28;846;-77
2022/07/08 00:48:20;;;;;;;5.30;2.50;;;;;;;17.47;47.00;102282.16;688126;28;1130;-78
2022/07/08 00:48:41;;;;;;;5.45;2.55;;;;;;;17.50;46.93;102292.78;690456;28;1385;-78
2022/07/08 00:49:02;;;;;;;7.13;2.70;;;;;;;17.46;46.99;102279.47;693529;28;1172;-77
2022/07/08 00:49:23;;;;;;;9.77;2.88;;;;;;;17.45;46.91;102289.13;693434;28;1162;-77
2022/07/08 00:49:44;;;;;;;9.80;3.13;;;;;;;17.48;46.86;102296.22;693078;28;1249;-78
2022/07/08 00:50:05;;;;;;;9.10;2.90;;;;;;;17.48;46.76;102290.94;690821;28;1358;-79
2022/07/08 00:50:26;;;;;;;7.50;2.72;;;;;;;17.45;46.97;102289.13;688060;28;1206;-77
2022/07/08 00:50:47;;;;;;;8.30;2.60;;;;;;;17.44;47.07;102282.06;685594;28;741;-77
2022/07/08 00:51:11;;;;;;;7.40;2.40;;;;;;;17.44;46.85;102284.72;690772;28;1167;-77
2022/07/08 00:51:33;;;;;;;5.13;2.20;;;;;;;17.40;46.82;102283.75;693384;28;1410;-78
2022/07/08 00:51:56;;;;;;;4.22;2.42;;;;;;;17.42;46.91;102282.88;693554;28;1252;-77
2022/07/08 00:52:17;;;;;;;4.60;2.60;;;;;;;17.40;46.99;102280.22;693369;28;1095;-77
2022/07/08 00:52:39;;;;;;;4.13;2.42;;;;;;;17.39;47.08;102267.84;693604;28;929;-77
2022/07/08 00:53:00;;;;;;;6.05;2.35;;;;;;;17.45;46.94;102281.22;693940;28;1140;-78
2022/07/08 00:53:22;;;;;;;5.65;2.30;;;;;;;17.46;46.98;102284.75;691625;28;1297;-79
2022/07/08 00:53:47;;;;;;;6.97;2.55;;;;;;;17.49;46.89;102290.09;687839;28;1196;-77
2022/07/08 00:54:08;;;;;;;6.88;2.42;;;;;;;17.45;46.89;102289.13;688170;28;961;-76
2022/07/08 00:54:29;;;;;;;8.18;2.75;;;;;;;17.46;46.80;102290.91;693480;28;1068;-77
2022/07/08 00:54:51;;;;;;;7.40;2.70;;;;;;;17.50;46.49;102302.44;696312;28;1235;-77
2022/07/08 00:55:13;;;;;;;6.80;2.40;;;;;;;17.44;46.96;102284.72;693577;28;1095;-78
2022/07/08 00:55:33;;;;;;;5.90;2.20;;;;;;;17.50;46.86;102292.78;685423;28;1155;-78
2022/07/08 00:55:55;;;;;;;4.30;2.20;;;;;;;17.48;46.89;102285.69;688058;28;1193;-77
2022/07/08 00:56:16;;;;;;;5.05;2.38;;;;;;;17.44;46.82;102281.19;690527;28;1326;-78
2022/07/08 00:56:38;;;;;;;5.82;2.50;;;;;;;17.50;46.78;102291.88;685382;28;1199;-77
2022/07/08 00:57:00;;;;;;;6.20;2.50;;;;;;;17.44;46.93;102270.63;690944;28;823;-78
2022/07/08 00:57:20;;;;;;;3.70;2.20;;;;;;;17.47;46.84;102281.25;688042;28;1135;-78
2022/07/08 00:57:41;;;;;;;3.20;2.03;;;;;;;17.44;46.79;102278.56;685513;28;1152;-77
2022/07/08 00:58:02;;;;;;;5.47;2.00;;;;;;;17.48;46.92;102288.31;685509;28;1027;-78
2022/07/08 00:58:24;;;;;;;8.07;2.22;;;;;;;17.48;46.91;102283.94;685428;28;1301;-78
2022/07/08 00:58:46;;;;;;;9.85;2.60;;;;;;;17.45;46.84;102282.97;682913;28;835;-78
2022/07/08 00:59:08;;;;;;;7.45;2.70;;;;;;;17.45;46.60;102280.34;687762;28;1381;-77
2022/07/08 00:59:29;;;;;;;6.28;2.90;;;;;;;17.45;46.87;102277.69;687879;28;1007;-78
2022/07/08 00:59:49;;;;;;;6.40;3.00;;;;;;;17.42;46.78;102282.88;693370;28;909;-77
2022/07/08 01:00:11;;;;;;;6.90;2.80;;;;;;;17.42;46.90;102278.50;693559;28;1407;-78
2022/07/08 01:00:31;;;;;;;7.22;2.60;;;;;;;17.42;46.67;102281.16;690795;28;1218;-78
2022/07/08 01:00:53;;;;;;;6.30;2.42;;;;;;;17.45;46.60;102281.22;685320;28;1307;-78
2022/07/08 01:01:15;;;;;;;5.70;2.40;;;;;;;17.47;46.98;102286.53;688096;28;1214;-78
2022/07/08 01:01:36;;;;;;;6.63;2.42;;;;;;;17.44;46.75;102292.63;690647;28;1273;-77
2022/07/08 01:01:57;;;;;;;6.70;2.50;;;;;;;17.44;46.91;102287.34;693555;28;1115;-78
2022/07/08 01:02:19;;;;;;;7.38;2.70;;;;;;;17.46;46.65;102296.19;687991;28;1376;-78
2022/07/08 01:02:40;;;;;;;6.23;2.63;;;;;;;17.45;46.92;102293.53;690349;28;1231;-78
2022/07/08 01:03:01;;;;;;;5.50;2.50;;;;;;;17.39;46.98;102279.31;693625;28;1325;-78
2022/07/08 01:03:22;;;;;;;3.85;2.30;;;;;;;17.46;46.76;102292.66;693672;28;1654;-78
2022/07/08 01:03:44;;;;;;;3.40;2.20;;;;;;;17.44;46.88;102287.34;690871;28;1449;-77
2022/07/08 01:04:05;;;;;;;3.45;2.20;;;;;;;17.43;46.85;102282.94;691731;28;1301;-78
2022/07/08 01:04:26;;;;;;;4.40;2.10;;;;;;;17.46;46.79;102290.91;688026;28;1338;-77
2022/07/08 01:04:47;;;;;;;4.93;2.10;;;;;;;17.46;46.91;102288.25;690753;28;1121;-77
2022/07/08 01:05:42;;;;;;;6.10;2.33;;;;;;;17.48;46.88;102289.22;690910;28;960;-77
2022/07/08 01:06:21;;;;;;;6.07;2.33;;;;;;;17.40;46.88;102283.75;689744;28;1967;-78
2022/07/08 01:06:43;;;;;;;6.37;2.40;;;;;;;17.43;46.92;102285.56;690817;28;1043;-78
2022/07/08 01:07:06;;;;;;;6.80;2.40;;;;;;;17.45;47.04;102286.47;688943;28;1187;-78
2022/07/08 01:07:26;;;;;;;5.45;2.22;;;;;;;17.40;46.89;102282.88;690344;28;1282;-78
2022/07/08 01:07:48;;;;;;;4.10;2.10;;;;;;;17.42;46.95;102281.16;687995;28;875;-78
2022/07/08 01:08:09;;;;;;;3.60;2.10;;;;;;;17.42;47.00;102289.06;687969;28;1437;-77
2022/07/08 01:08:30;;;;;;;2.72;2.00;;;;;;;17.44;47.04;102292.63;687263;28;1356;-77
2022/07/08 01:08:53;;;;;;;3.25;2.20;;;;;;;17.43;46.97;102290.84;687752;28;865;-78
2022/07/08 01:09:15;;;;;;;3.88;2.20;;;;;;;17.44;47.00;102283.84;689929;28;1075;-78
2022/07/08 01:09:36;;;;;;;4.07;2.30;;;;;;;17.43;47.00;102288.22;687701;28;1017;-77
2022/07/08 01:09:59;;;;;;;4.57;2.30;;;;;;;17.45;46.90;102285.63;686617;28;1230;-78
2022/07/08 01:10:20;;;;;;;5.20;2.40;;;;;;;17.43;46.95;102288.22;685077;28;1759;-77
2022/07/08 01:10:40;;;;;;;5.90;2.40;;;;;;;17.42;47.00;102289.06;685452;28;1211;-78
2022/07/08 01:11:02;;;;;;;4.95;2.28;;;;;;;17.45;46.83;102288.25;690818;28;1251;-78
2022/07/08 01:11:23;;;;;;;5.07;2.30;;;;;;;17.40;47.10;102290.78;693433;28;1024;-78
2022/07/08 01:11:45;;;;;;;5.47;2.20;;;;;;;17.39;47.00;102291.63;687668;28;1361;-78
2022/07/08 01:12:07;;;;;;;5.88;2.38;;;;;;;17.41;46.78;102287.28;693483;28;1121;-78
2022/07/08 01:12:28;;;;;;;4.88;2.40;;;;;;;17.43;46.83;102289.94;690770;28;1096;-78
2022/07/08 01:12:49;;;;;;;4.20;2.30;;;;;;;17.43;46.93;102288.22;696209;28;1197;-78
2022/07/08 01:13:10;;;;;;;4.55;2.03;;;;;;;17.41;46.95;102292.56;696382;28;1064;-78
2022/07/08 01:13:32;;;;;;;5.50;2.15;;;;;;;17.42;47.11;102289.06;690801;28;1579;-78
2022/07/08 01:13:54;;;;;;;5.93;2.50;;;;;;;17.44;47.00;102289.13;688106;28;1403;-78
2022/07/08 01:14:15;;;;;;;5.38;2.75;;;;;;;17.43;47.06;102284.66;692581;28;1489;-77
2022/07/08 01:14:36;;;;;;;4.80;2.70;;;;;;;17.45;46.87;102297.03;692435;28;1277;-77
2022/07/08 01:14:57;;;;;;;4.28;2.58;;;;;;;17.48;47.10;102304.16;690883;28;756;-77
2022/07/08 01:15:20;;;;;;;5.10;2.40;;;;;;;17.43;47.01;102290.84;688039;28;989;-77
2022/07/08 01:15:43;;;;;;;5.07;2.40;;;;;;;17.41;46.84;102292.56;688152;28;823;-78
2022/07/08 01:16:04;;;;;;;4.18;2.20;;;;;;;17.46;46.89;102293.53;690872;28;1032;-78
2022/07/08 01:16:25;;;;;;;3.60;2.30;;;;;;;17.44;46.82;102297.03;693610;28;1231;-77
2022/07/08 01:16:47;;;;;;;4.50;2.28;;;;;;;17.40;46.86;102285.50;693059;28;1251;-79
2022/07/08 01:17:08;;;;;;;5.22;2.30;;;;;;;17.40;46.90;102290.78;693491;28;1293;-78
2022/07/08 01:17:40;;;;;;;4.97;2.30;;;;;;;17.42;46.97;102291.69;692928;28;1151;-78
2022/07/08 01:18:01;;;;;;;5.32;2.65;;;;;;;17.44;46.87;102302.31;693603;28;783;-78
2022/07/08 01:18:27;;;;;;;5.10;2.80;;;;;;;17.44;46.87;102300.53;690660;28;1199;-78
2022/07/08 01:18:47;;;;;;;6.40;2.80;;;;;;;17.42;46.78;102299.63;687776;28;1426;-78
2022/07/08 01:19:08;;;;;;;5.80;2.80;;;;;;;17.43;46.87;102301.41;688026;28;1306;-78
2022/07/08 01:19:32;;;;;;;5.35;2.50;;;;;;;17.35;46.88;102284.50;686625;28;1326;-77
2022/07/08 01:19:54;;;;;;;5.70;2.60;;;;;;;17.42;46.88;102304.00;690686;28;1330;-78
2022/07/08 01:20:16;;;;;;;5.97;2.63;;;;;;;17.41;46.83;102300.47;690638;28;1851;-78
2022/07/08 01:20:40;;;;;;;6.18;2.78;;;;;;;17.41;46.98;102297.84;694997;28;1241;-77
2022/07/08 01:21:01;;;;;;;5.70;2.70;;;;;;;17.41;47.01;102292.56;690939;28;979;-78
2022/07/08 01:21:23;;;;;;;5.85;2.55;;;;;;;17.37;46.97;102291.59;696272;28;1018;-77
2022/07/08 01:21:44;;;;;;;5.82;2.30;;;;;;;17.36;46.91;102284.53;692989;28;1048;-78
2022/07/08 01:22:05;;;;;;;5.95;2.20;;;;;;;17.37;47.06;102295.97;685169;28;1690;-78
2022/07/08 01:22:25;;;;;;;5.28;2.40;;;;;;;17.35;47.14;102284.50;687864;28;1410;-78
2022/07/08 01:22:47;;;;;;;4.63;2.30;;;;;;;17.38;47.15;102297.75;688243;28;831;-78
2022/07/08 01:23:09;;;;;;;5.00;2.40;;;;;;;17.32;47.21;102282.66;693533;28;1534;-77
2022/07/08 01:23:30;;;;;;;6.00;2.40;;;;;;;17.33;47.21;102289.72;693417;28;1088;-78
2022/07/08 01:23:50;;;;;;;5.63;2.45;;;;;;;17.37;47.13;102290.69;687978;28;1247;-78
2022/07/08 01:24:11;;;;;;;5.20;2.40;;;;;;;17.42;46.98;102296.06;690756;28;1205;-78
2022/07/08 01:24:31;;;;;;;4.55;2.50;;;;;;;17.38;47.02;102296.00;688103;28;1060;-77
2022/07/08 01:24:52;;;;;;;4.60;2.47;;;;;;;17.37;47.11;102290.69;684890;28;1072;-78
2022/07/08 01:25:13;;;;;;;4.83;2.27;;;;;;;17.35;47.04;102287.13;685417;28;1005;-78
2022/07/08 01:25:34;;;;;;;5.97;2.30;;;;;;;17.41;46.99;102292.56;685418;28;1083;-78
2022/07/08 01:25:55;;;;;;;10.30;2.50;;;;;;;17.34;46.97;102280.06;687709;28;1696;-77
2022/07/08 01:26:16;;;;;;;9.65;2.88;;;;;;;17.42;47.12;102299.63;690867;28;1904;-77
2022/07/08 01:26:37;;;;;;;9.00;2.60;;;;;;;17.37;47.11;102286.31;690520;28;1306;-77
2022/07/08 01:26:57;;;;;;;5.55;2.60;;;;;;;17.46;47.16;102290.03;690412;28;846;-78
2022/07/08 01:27:18;;;;;;;5.50;2.22;;;;;;;17.61;46.97;102287.75;690442;28;1099;-78
2022/07/08 01:27:39;;;;;;;4.35;2.30;;;;;;;17.55;46.87;102295.53;685414;28;1277;-78
2022/07/08 01:27:59;;;;;;;4.70;2.40;;;;;;;17.70;46.71;102305.53;684646;28;1453;-78
2022/07/08 01:28:21;;;;;;;5.95;2.80;;;;;;;17.71;46.61;102290.59;685249;28;1187;-78
2022/07/08 01:28:43;;;;;;;6.68;2.70;;;;;;;17.74;46.49;102291.56;688070;28;1198;-78
2022/07/08 01:29:04;;;;;;;5.88;2.30;;;;;;;17.77;46.43;102291.63;686904;28;1536;-78
2022/07/08 01:29:25;;;;;;;4.00;2.15;;;;;;;17.72;46.46;102287.09;687964;28;1116;-77
2022/07/08 01:29:46;;;;;;;4.70;2.30;;;;;;;17.83;46.43;102303.19;687751;28;852;-77
2022/07/08 01:30:07;;;;;;;5.95;2.35;;;;;;;17.77;46.52;102288.97;688071;28;1289;-77
2022/07/08 01:30:28;;;;;;;6.57;2.60;;;;;;;17.85;46.37;102304.09;686993;28;1740;-78
2022/07/08 01:30:49;;;;;;;6.40;2.70;;;;;;;17.77;46.48;102290.75;687618;28;1251;-77
2022/07/08 01:31:11;;;;;;;4.88;2.70;;;;;;;17.80;46.49;102304.91;690731;28;1111;-78
2022/07/08 01:31:31;;;;;;;5.75;2.70;;;;;;;17.80;46.48;102306.63;690684;28;944;-78
2022/07/08 01:31:52;;;;;;;5.77;2.80;;;;;;;17.77;46.54;102294.25;690794;28;1228;-77
2022/07/08 01:32:13;;;;;;;5.70;2.67;;;;;;;17.73;46.57;102287.13;689986;28;1311;-78
2022/07/08 01:32:35;;;;;;;6.88;2.90;;;;;;;17.73;46.47;102289.78;688041;28;1206;-77
2022/07/08 01:32:56;;;;;;;6.75;3.00;;;;;;;17.79;46.57;102299.56;693041;28;1286;-77
2022/07/08 01:33:17;;;;;;;7.07;3.03;;;;;;;17.77;46.65;102299.53;693503;28;1021;-77
2022/07/08 01:33:40;;;;;;;5.22;2.45;;;;;;;17.77;46.58;102296.91;693057;28;1274;-77
2022/07/08 01:34:01;;;;;;;5.47;2.40;;;;;;;17.78;46.68;102298.66;693632;28;844;-78
2022/07/08 01:34:22;;;;;;;4.93;2.50;;;;;;;17.73;46.92;102292.41;693545;28;1195;-78
2022/07/08 01:34:43;;;;;;;4.97;2.63;;;;;;;17.73;46.80;102294.16;690800;28;820;-78
2022/07/08 01:35:04;;;;;;;5.10;2.60;;;;;;;17.75;46.84;102290.69;690865;28;1083;-78
2022/07/08 01:35:25;;;;;;;6.53;2.35;;;;;;;17.76;46.66;102295.13;690770;28;948;-78
2022/07/08 01:35:46;;;;;;;5.88;2.40;;;;;;;17.83;46.66;102300.53;687926;28;1283;-77
2022/07/08 01:36:07;;;;;;;6.50;2.45;;;;;;;17.78;46.71;102293.38;688626;28;997;-78
2022/07/08 01:36:29;;;;;;;4.72;2.42;;;;;;;17.80;46.64;102291.69;690809;28;1219;-78
2022/07/08 01:36:50;;;;;;;7.30;2.90;;;;;;;17.77;46.65;102291.63;688063;28;920;-78
2022/07/08 01:37:11;;;;;;;8.55;3.00;;;;;;;17.77;46.84;102291.63;693367;28;1192;-78
2022/07/08 01:37:32;;;;;;;9.13;2.80;;;;;;;17.78;46.95;102295.16;690796;28;986;-78
2022/07/08 01:37:53;;;;;;;6.40;2.60;;;;;;;17.74;46.94;102288.91;685078;28;1793;-78
2022/07/08 01:38:22;;;;;;;5.47;2.50;;;;;;;17.79;46.71;102295.19;685451;28;986;-78
2022/07/08 01:38:43;;;;;;;5.95;2.22;;;;;;;17.84;46.66;102299.69;685252;28;1745;-77
2022/07/08 01:39:04;;;;;;;5.13;2.10;;;;;;;17.77;46.78;102293.38;688213;28;1159;-78
2022/07/08 01:39:25;;;;;;;5.53;2.23;;;;;;;17.76;46.55;102289.84;685226;28;1237;-77
2022/07/08 01:39:48;;;;;;;4.78;2.45;;;;;;;17.75;46.81;102293.34;684874;28;2298;-78
2022/07/08 01:40:10;;;;;;;5.38;2.42;;;;;;;17.77;46.77;102288.09;685231;28;1256;-77
2022/07/08 01:40:42;;;;;;;4.75;2.40;;;;;;;17.81;46.97;102292.56;687457;28;1950;-78
2022/07/08 01:41:04;;;;;;;4.55;2.17;;;;;;;17.77;47.05;102296.91;690231;28;1504;-77
2022/07/08 01:42:15;;;;;;;4.30;2.28;;;;;;;17.81;47.01;102297.84;690420;28;1157;-77
2022/07/08 01:42:47;;;;;;;4.55;2.40;;;;;;;17.74;47.09;102285.38;690734;28;1063;-78
2022/07/08 01:43:07;;;;;;;5.00;2.40;;;;;;;17.76;47.10;102286.31;693395;28;1282;-78
2022/07/08 01:43:28;;;;;;;5.05;2.60;;;;;;;17.78;47.10;102296.03;693394;28;971;-78
2022/07/08 01:43:50;;;;;;;5.97;2.70;;;;;;;17.75;46.74;102277.50;688001;28;1180;-78
2022/07/08 01:44:11;;;;;;;8.27;2.83;;;;;;;17.82;47.15;102294.34;687595;28;1293;-78
2022/07/08 01:44:33;;;;;;;9.07;2.60;;;;;;;17.78;47.11;102282.81;687963;28;1202;-77
2022/07/08 01:44:54;;;;;;;7.88;2.65;;;;;;;17.76;47.09;102287.19;685525;28;855;-77